Rison, Maryland
Current Conditions -  °F | °C
As of 1:56 AM on Monday 22 Dec 2014 (Local Time) from KNYG Reporting Station
Overcast Overcast  
Wind Chill: 26°   Ceiling: 4800
Heat Index: 31°   Visibility: 9mi
Dew Point: 26°   Wind: 5mph
Humidity: 82%   Direction: 320°NW
Pressure: 30.34"   Gusts: NA
Location:  38.5593°N, 77.1565°W
Report Text: KNYG 220656Z AUTO 32004KT 9SM OVC048 M01/M03 A3034 RMK AO2 SLP274 T10061033 $
Loading
Personal Weather Stations






























Interactive Weather Map New forecast layout! Learn more

10-Day Weather Forecast

Advertisements
Track Severe Weather on mobile